Time;durP1;ratioP1;P1;durP2;ratioP2;P2;SDS_P1;SDS_P2;PMS_P1;PMS_P2;Temp;Humidity;BMP_temperature;BMP_pressure;BME280_temperature;BME280_humidity;BME280_pressure;Samples;Min_cycle;Max_cycle;Signal;HPM_P1;HPM_P2
2021/12/06 00:01:41;;;;;;;8.83;3.90;;;3.10;99.90;;;;;;1989310;71;21477;-77
2021/12/06 00:04:07;;;;;;;10.73;5.00;;;3.00;99.90;;;;;;2001124;71;21433;-77
2021/12/06 00:06:33;;;;;;;7.92;3.98;;;2.90;99.90;;;;;;2002897;71;21034;-79
2021/12/06 00:09:00;;;;;;;5.83;4.25;;;2.90;99.90;;;;;;1992511;71;21057;-77
2021/12/06 00:11:26;;;;;;;5.62;3.90;;;2.80;99.90;;;;;;1984668;71;21097;-78
2021/12/06 00:13:52;;;;;;;6.67;4.05;;;2.90;99.90;;;;;;2000458;71;21053;-77
2021/12/06 00:16:21;;;;;;;5.78;3.87;;;3.00;99.90;;;;;;2009486;71;21134;-76
2021/12/06 00:18:46;;;;;;;7.83;4.37;;;3.10;99.90;;;;;;2000317;71;21418;-78
2021/12/06 00:21:12;;;;;;;5.50;3.90;;;2.90;99.90;;;;;;1989204;71;21484;-77
2021/12/06 00:23:38;;;;;;;5.47;3.95;;;3.00;99.90;;;;;;2000350;71;21444;-76
2021/12/06 00:26:04;;;;;;;5.60;3.72;;;3.10;99.90;;;;;;1996927;71;21146;-77
2021/12/06 00:28:31;;;;;;;7.60;3.65;;;3.10;99.90;;;;;;1999981;71;21208;-76
2021/12/06 00:30:57;;;;;;;4.62;3.72;;;3.10;99.90;;;;;;2000680;71;21053;-77
2021/12/06 00:33:25;;;;;;;6.83;4.33;;;3.10;99.90;;;;;;2004903;71;21134;-77
2021/12/06 00:35:51;;;;;;;5.47;4.35;;;3.10;99.90;;;;;;2001538;71;21064;-78
2021/12/06 00:38:17;;;;;;;6.92;4.12;;;3.00;99.90;;;;;;1992134;71;21021;-76
2021/12/06 00:40:43;;;;;;;9.18;4.78;;;3.00;99.90;;;;;;1993386;71;21138;-77
2021/12/06 00:43:09;;;;;;;8.15;4.10;;;3.00;99.90;;;;;;1999241;71;21126;-76
2021/12/06 00:45:35;;;;;;;7.03;4.10;;;3.00;99.90;;;;;;1992874;71;21068;-77
2021/12/06 00:48:01;;;;;;;13.93;4.22;;;3.00;99.90;;;;;;1999817;71;21060;-77
2021/12/06 00:50:29;;;;;;;6.28;4.28;;;3.00;99.90;;;;;;1984247;71;21146;-77
2021/12/06 00:52:55;;;;;;;10.05;4.28;;;2.90;99.90;;;;;;1992885;71;21171;-78
2021/12/06 00:55:21;;;;;;;6.15;3.65;;;2.90;99.90;;;;;;1998696;71;21037;-78
2021/12/06 00:57:48;;;;;;;6.62;3.85;;;2.90;99.90;;;;;;2000894;71;21052;-78
2021/12/06 01:00:14;;;;;;;8.88;4.00;;;2.90;99.90;;;;;;1999639;71;21129;-78
2021/12/06 01:02:41;;;;;;;5.90;3.90;;;2.90;99.90;;;;;;2002169;71;21052;-77
2021/12/06 01:05:07;;;;;;;10.30;4.60;;;2.90;99.90;;;;;;1992919;71;21550;-77
2021/12/06 01:07:33;;;;;;;11.57;4.25;;;2.90;99.90;;;;;;2000538;71;21450;-77
2021/12/06 01:09:59;;;;;;;11.83;3.75;;;2.80;99.90;;;;;;2002773;71;21469;-76
2021/12/06 01:12:25;;;;;;;8.78;4.42;;;2.90;99.90;;;;;;1995407;71;21052;-77
2021/12/06 01:14:53;;;;;;;6.97;4.37;;;2.80;99.90;;;;;;1998297;71;21100;-78
2021/12/06 01:17:19;;;;;;;7.92;4.35;;;2.80;99.90;;;;;;1993776;71;21446;-78
2021/12/06 01:19:45;;;;;;;6.15;4.28;;;2.80;99.90;;;;;;2005652;71;21526;-77
2021/12/06 01:22:41;;;;;;;11.60;5.00;;;2.90;99.90;;;;;;1999177;71;21576;-77
2021/12/06 01:24:51;;;;;;;12.63;4.80;;;2.90;99.90;;;;;;1977493;71;21057;-77
2021/12/06 01:32:46;;;;;;;5.22;4.25;;;2.80;99.90;;;;;;1996935;71;21093;-78
2021/12/06 01:40:06;;;;;;;17.48;4.78;;;2.70;99.90;;;;;;1996736;71;21684;-77
2021/12/06 01:42:32;;;;;;;7.30;4.85;;;2.80;99.90;;;;;;1993900;71;21453;-77
2021/12/06 01:44:59;;;;;;;7.50;4.90;;;2.80;99.90;;;;;;1996591;71;21523;-76
2021/12/06 01:47:25;;;;;;;6.92;4.80;;;2.70;99.90;;;;;;1997948;71;21052;-77
2021/12/06 01:49:51;;;;;;;6.85;4.75;;;2.70;99.90;;;;;;1996988;71;21458;-78
2021/12/06 01:52:17;;;;;;;7.42;4.47;;;2.80;99.90;;;;;;1987075;71;21069;-78
2021/12/06 01:54:44;;;;;;;7.15;4.78;;;2.80;99.90;;;;;;2000060;71;21018;-78
2021/12/06 01:57:10;;;;;;;8.45;5.00;;;2.80;99.90;;;;;;1999196;71;21063;-77
2021/12/06 01:59:36;;;;;;;9.28;5.22;;;2.90;99.90;;;;;;2004452;71;21122;-77
2021/12/06 02:02:02;;;;;;;10.60;4.92;;;2.90;99.90;;;;;;2003186;71;21150;-78
2021/12/06 02:04:29;;;;;;;14.38;5.37;;;2.90;99.90;;;;;;1992505;71;21065;-76
2021/12/06 02:06:55;;;;;;;8.65;4.78;;;2.80;99.90;;;;;;1993121;71;21566;-77
2021/12/06 02:09:25;;;;;;;9.98;5.40;;;2.90;99.90;;;;;;1993648;71;21473;-78
2021/12/06 02:11:51;;;;;;;8.85;5.60;;;2.90;99.90;;;;;;1992223;71;21076;-78
2021/12/06 02:16:59;;;;;;;12.45;5.95;;;2.80;99.90;;;;;;2001773;71;21081;-76
2021/12/06 02:19:18;;;;;;;9.68;5.85;;;2.80;99.90;;;;;;1990093;71;21644;-77
2021/12/06 02:21:42;;;;;;;13.05;5.30;;;2.90;99.90;;;;;;1995988;71;21082;-77
2021/12/06 02:24:09;;;;;;;7.67;5.10;;;2.90;99.90;;;;;;1996622;71;21143;-77
2021/12/06 02:26:36;;;;;;;9.70;4.85;;;2.90;99.90;;;;;;1999391;71;21114;-77
2021/12/06 02:29:02;;;;;;;10.88;5.45;;;3.00;99.90;;;;;;1995334;71;21061;-76
2021/12/06 02:31:28;;;;;;;9.13;4.92;;;2.90;99.90;;;;;;2002862;71;21118;-76
2021/12/06 02:33:54;;;;;;;6.33;4.92;;;2.80;99.90;;;;;;1992235;71;21057;-77
2021/12/06 02:36:20;;;;;;;8.35;5.30;;;2.80;99.90;;;;;;1993164;71;21151;-76
2021/12/06 02:38:46;;;;;;;5.78;4.65;;;2.80;99.90;;;;;;1978329;71;21021;-76
2021/12/06 02:41:12;;;;;;;9.55;4.87;;;2.80;99.90;;;;;;1990366;71;21138;-76
2021/12/06 02:43:38;;;;;;;8.20;4.65;;;2.90;99.90;;;;;;2004390;71;21057;-76
2021/12/06 02:46:05;;;;;;;7.67;4.85;;;2.90;99.90;;;;;;2001174;71;21068;-75
2021/12/06 02:48:31;;;;;;;7.92;4.60;;;3.00;99.90;;;;;;1992518;71;21061;-76
2021/12/06 02:50:57;;;;;;;7.60;5.12;;;3.10;99.90;;;;;;2002985;71;21154;-75
2021/12/06 02:53:23;;;;;;;5.97;4.70;;;3.00;99.90;;;;;;1992578;71;21425;-77
2021/12/06 02:55:53;;;;;;;8.55;5.05;;;2.90;99.90;;;;;;1993305;71;21417;-76
2021/12/06 02:58:46;;;;;;;7.30;5.60;;;2.90;99.90;;;;;;1986875;71;21240;-77
2021/12/06 03:00:50;;;;;;;14.30;6.62;;;2.90;99.90;;;;;;1997362;71;21226;-77
2021/12/06 03:03:20;;;;;;;8.93;5.33;;;2.90;99.90;;;;;;1992770;71;21029;-77
2021/12/06 03:05:44;;;;;;;8.65;6.28;;;2.90;99.90;;;;;;1990144;71;21029;-77
2021/12/06 03:08:10;;;;;;;8.53;6.42;;;3.00;99.90;;;;;;2006571;71;21064;-77
2021/12/06 03:10:36;;;;;;;9.68;6.42;;;3.10;99.90;;;;;;2003202;71;21053;-76
2021/12/06 03:13:02;;;;;;;12.45;6.87;;;3.10;99.90;;;;;;2001623;71;21073;-77
2021/12/06 03:15:28;;;;;;;10.65;6.50;;;3.00;99.90;;;;;;1994140;71;21194;-76
2021/12/06 03:17:55;;;;;;;8.78;6.12;;;3.00;99.90;;;;;;1987464;71;21530;-77
2021/12/06 03:20:21;;;;;;;12.90;5.90;;;3.00;99.90;;;;;;1998228;71;21456;-77
2021/12/06 03:22:47;;;;;;;7.22;5.65;;;2.90;99.90;;;;;;2003089;71;21468;-77
2021/12/06 03:25:13;;;;;;;9.03;5.75;;;2.90;99.90;;;;;;1998409;71;21211;-75
2021/12/06 03:27:39;;;;;;;8.38;5.58;;;2.90;99.90;;;;;;1998871;71;21138;-76
2021/12/06 03:30:05;;;;;;;8.20;5.78;;;2.90;99.90;;;;;;2003979;71;21056;-77
2021/12/06 03:32:31;;;;;;;12.00;6.95;;;2.90;99.90;;;;;;1986322;71;21070;-76
2021/12/06 03:34:57;;;;;;;13.43;5.95;;;2.90;99.90;;;;;;1998436;71;21150;-76
2021/12/06 03:37:23;;;;;;;6.80;5.78;;;2.80;99.90;;;;;;2000043;71;21061;-76
2021/12/06 03:39:50;;;;;;;7.97;5.55;;;2.90;99.90;;;;;;1996795;71;21134;-75
2021/12/06 03:42:16;;;;;;;8.48;6.45;;;2.90;99.90;;;;;;2004224;71;21057;-76
2021/12/06 03:44:42;;;;;;;6.40;5.55;;;2.90;99.90;;;;;;1983835;71;21233;-77
2021/12/06 03:47:08;;;;;;;7.10;5.58;;;2.80;99.90;;;;;;1993388;71;21057;-76
2021/12/06 03:49:34;;;;;;;13.15;6.90;;;2.80;99.90;;;;;;1995673;71;21144;-76
2021/12/06 03:52:01;;;;;;;8.68;6.22;;;2.80;99.90;;;;;;2000185;71;21024;-77
2021/12/06 03:54:28;;;;;;;7.95;5.80;;;2.90;99.90;;;;;;1993501;71;21154;-76
2021/12/06 03:56:54;;;;;;;9.85;6.12;;;2.90;99.90;;;;;;1982145;71;21217;-77
2021/12/06 03:59:20;;;;;;;7.60;5.70;;;3.00;99.90;;;;;;1991490;71;21109;-77
2021/12/06 04:01:47;;;;;;;8.55;6.10;;;3.00;99.90;;;;;;2002097;71;21061;-77
2021/12/06 04:04:13;;;;;;;6.97;5.37;;;3.10;99.90;;;;;;1991799;71;21517;-78
2021/12/06 04:06:40;;;;;;;7.33;5.83;;;3.10;99.90;;;;;;2004169;71;21414;-76
2021/12/06 04:09:06;;;;;;;8.60;5.53;;;3.20;99.90;;;;;;1999331;71;21453;-77
2021/12/06 04:11:32;;;;;;;10.58;6.10;;;3.20;99.90;;;;;;2004381;71;21468;-76
2021/12/06 04:13:58;;;;;;;9.28;6.20;;;3.20;99.90;;;;;;1996515;71;21065;-75
2021/12/06 04:16:24;;;;;;;10.58;6.17;;;3.20;99.90;;;;;;2000231;71;21134;-76
2021/12/06 04:18:50;;;;;;;9.63;5.90;;;3.30;99.90;;;;;;1997559;71;21127;-77
2021/12/06 04:21:18;;;;;;;9.80;6.35;;;3.30;99.90;;;;;;1990428;71;21057;-77
2021/12/06 04:23:44;;;;;;;9.45;6.67;;;3.30;99.90;;;;;;1997460;71;21498;-77
2021/12/06 04:26:10;;;;;;;10.95;6.42;;;3.30;99.90;;;;;;2000062;71;21052;-76
2021/12/06 04:28:37;;;;;;;11.50;7.40;;;3.20;99.90;;;;;;1989688;71;21131;-77
2021/12/06 04:31:03;;;;;;;11.53;6.80;;;3.20;99.90;;;;;;2001166;71;21594;-77
2021/12/06 04:33:30;;;;;;;9.28;6.42;;;3.10;99.90;;;;;;1996796;71;21473;-76
2021/12/06 04:35:56;;;;;;;11.18;7.17;;;3.10;99.90;;;;;;1997569;71;21177;-77
2021/12/06 04:38:22;;;;;;;11.00;7.25;;;3.10;99.90;;;;;;1997193;71;21065;-77
2021/12/06 04:40:48;;;;;;;9.53;6.83;;;3.10;99.90;;;;;;1987144;71;21129;-76
2021/12/06 04:43:14;;;;;;;7.92;6.47;;;3.10;99.90;;;;;;2008920;71;21126;-77
2021/12/06 04:45:40;;;;;;;8.60;6.83;;;3.10;99.90;;;;;;2006334;71;21202;-77
2021/12/06 04:48:06;;;;;;;13.83;7.60;;;3.10;99.90;;;;;;1998103;71;21130;-76
2021/12/06 04:50:33;;;;;;;11.53;6.92;;;3.10;99.90;;;;;;1997416;71;21072;-77
2021/12/06 04:52:59;;;;;;;12.00;8.35;;;3.00;99.90;;;;;;2002236;71;21191;-77
2021/12/06 04:55:25;;;;;;;11.35;8.03;;;3.00;99.90;;;;;;1996614;71;21057;-76
2021/12/06 04:57:52;;;;;;;10.40;7.58;;;3.00;99.90;;;;;;2000465;71;21119;-76
2021/12/06 05:00:18;;;;;;;11.95;7.75;;;3.00;99.90;;;;;;2006660;71;21134;-76
2021/12/06 05:02:44;;;;;;;11.08;7.72;;;3.00;99.90;;;;;;1995282;71;21022;-75
2021/12/06 05:05:10;;;;;;;13.60;8.18;;;2.90;99.90;;;;;;2000144;71;21064;-77
2021/12/06 05:07:36;;;;;;;11.05;7.25;;;2.90;99.90;;;;;;1996817;71;21053;-76
2021/12/06 05:10:02;;;;;;;13.15;7.03;;;2.90;99.90;;;;;;1996482;71;21198;-76
2021/12/06 05:12:28;;;;;;;10.48;6.60;;;2.90;99.90;;;;;;2004845;71;21189;-76
2021/12/06 05:14:54;;;;;;;9.73;7.10;;;3.00;99.90;;;;;;2001172;71;21465;-77
2021/12/06 05:17:22;;;;;;;10.58;7.83;;;3.00;99.90;;;;;;2003610;71;21398;-76
2021/12/06 05:19:50;;;;;;;10.55;7.58;;;3.00;99.90;;;;;;1998391;71;21171;-78
2021/12/06 05:22:16;;;;;;;10.98;7.25;;;3.00;99.90;;;;;;2004025;71;21141;-77
2021/12/06 05:24:42;;;;;;;10.40;7.05;;;3.00;99.90;;;;;;1991907;71;21060;-77
2021/12/06 05:27:08;;;;;;;9.80;7.08;;;3.00;99.90;;;;;;1997067;71;21052;-78
2021/12/06 05:29:34;;;;;;;16.60;7.83;;;3.00;99.90;;;;;;2003267;71;21087;-77
2021/12/06 05:32:00;;;;;;;23.07;8.18;;;3.00;99.90;;;;;;1997497;71;21442;-76
2021/12/06 05:34:34;;;;;;;15.30;7.40;;;3.00;99.90;;;;;;1989442;71;21457;-77
2021/12/06 05:36:57;;;;;;;14.35;6.72;;;3.20;99.90;;;;;;1995524;71;21076;-76
2021/12/06 05:39:23;;;;;;;9.40;6.62;;;3.20;99.90;;;;;;1994763;71;21018;-76
2021/12/06 05:41:49;;;;;;;11.15;7.50;;;3.30;99.90;;;;;;1995679;71;21130;-76
2021/12/06 05:44:16;;;;;;;10.55;7.62;;;3.30;99.90;;;;;;1999347;71;21057;-76
2021/12/06 05:46:42;;;;;;;11.60;6.80;;;3.30;99.90;;;;;;1999496;71;21115;-75
2021/12/06 05:49:08;;;;;;;10.65;7.97;;;3.40;99.90;;;;;;1990199;71;21182;-76
2021/12/06 05:51:34;;;;;;;10.93;8.78;;;3.40;99.90;;;;;;1994279;71;21092;-78
2021/12/06 05:54:00;;;;;;;10.38;7.72;;;3.40;99.90;;;;;;1992897;71;21057;-76
2021/12/06 05:56:26;;;;;;;12.07;9.08;;;3.40;99.90;;;;;;1996014;71;21057;-76
2021/12/06 05:58:54;;;;;;;12.03;9.18;;;3.40;99.90;;;;;;2006072;71;21068;-78
2021/12/06 06:01:24;;;;;;;22.20;10.08;;;3.40;99.90;;;;;;2002725;71;21057;-76
2021/12/06 06:03:48;;;;;;;16.35;9.65;;;3.40;99.90;;;;;;1998557;70;21133;-74
2021/12/06 06:06:14;;;;;;;10.08;8.45;;;3.40;99.90;;;;;;1991199;71;21026;-78
2021/12/06 06:08:40;;;;;;;11.33;8.85;;;3.40;99.90;;;;;;1996349;71;21065;-77
2021/12/06 06:11:06;;;;;;;15.80;12.35;;;3.40;99.90;;;;;;1990933;71;21060;-77
2021/12/06 06:13:32;;;;;;;12.75;10.45;;;3.40;99.90;;;;;;1994534;71;21061;-77
2021/12/06 06:16:01;;;;;;;17.07;11.73;;;3.40;99.90;;;;;;1999573;71;21060;-78
2021/12/06 06:18:26;;;;;;;14.73;11.93;;;3.40;99.90;;;;;;1988512;71;21523;-76
2021/12/06 06:20:54;;;;;;;18.45;12.75;;;3.40;99.90;;;;;;1992561;71;21530;-81
2021/12/06 06:23:20;;;;;;;16.73;12.20;;;3.40;99.90;;;;;;2000190;71;21088;-80
2021/12/06 06:25:46;;;;;;;15.72;13.22;;;3.40;99.90;;;;;;1993337;71;21131;-79
2021/12/06 06:28:12;;;;;;;20.10;13.03;;;3.30;99.90;;;;;;1999515;71;21134;-79
2021/12/06 06:30:39;;;;;;;24.40;12.53;;;3.30;99.90;;;;;;1993694;71;21598;-81
2021/12/06 06:33:05;;;;;;;15.63;12.60;;;3.40;99.90;;;;;;1999727;71;21425;-80
2021/12/06 06:35:31;;;;;;;16.12;11.97;;;3.50;99.90;;;;;;1996500;71;21884;-80
2021/12/06 06:37:57;;;;;;;14.68;11.30;;;3.60;99.90;;;;;;2003934;71;21664;-78
2021/12/06 06:40:23;;;;;;;14.10;12.10;;;3.60;99.90;;;;;;1994670;71;21523;-78
2021/12/06 06:42:49;;;;;;;17.35;13.48;;;3.50;99.90;;;;;;1987636;71;21133;-79
2021/12/06 06:45:15;;;;;;;17.77;13.68;;;3.50;99.90;;;;;;1998984;71;21298;-78
2021/12/06 06:47:41;;;;;;;18.80;14.85;;;3.60;99.90;;;;;;2001521;71;21056;-79
2021/12/06 06:50:08;;;;;;;19.60;14.73;;;3.70;99.90;;;;;;1995359;71;21065;-79
2021/12/06 06:52:34;;;;;;;23.83;16.57;;;3.70;99.90;;;;;;1997228;71;21061;-78
2021/12/06 06:55:00;;;;;;;24.50;16.67;;;3.60;99.90;;;;;;1989205;71;21123;-78
2021/12/06 06:57:26;;;;;;;21.55;16.67;;;3.60;99.90;;;;;;1993819;71;21061;-78
2021/12/06 06:59:52;;;;;;;19.52;17.12;;;3.60;99.90;;;;;;2002469;71;21137;-79
2021/12/06 07:02:21;;;;;;;27.87;16.45;;;3.60;99.90;;;;;;1997497;71;21126;-78
2021/12/06 07:04:47;;;;;;;22.07;17.20;;;3.60;99.90;;;;;;2000847;71;21033;-80
2021/12/06 07:07:13;;;;;;;23.05;16.05;;;3.60;99.90;;;;;;1990250;71;21060;-80
2021/12/06 07:09:42;;;;;;;25.57;15.68;;;3.60;99.90;;;;;;1995249;71;21139;-79
2021/12/06 07:12:13;;;;;;;20.82;15.45;;;3.50;99.90;;;;;;1996167;71;21429;-79
2021/12/06 07:14:35;;;;;;;22.85;15.68;;;3.50;99.90;;;;;;2001369;69;21178;-79
2021/12/06 07:17:01;;;;;;;24.57;16.45;;;3.50;99.90;;;;;;1984344;71;21025;-78
2021/12/06 07:19:27;;;;;;;27.95;16.40;;;3.50;99.90;;;;;;1983239;71;21061;-78
2021/12/06 07:21:53;;;;;;;26.35;16.07;;;3.60;99.90;;;;;;1995404;71;21150;-78
2021/12/06 07:24:19;;;;;;;24.32;16.97;;;3.50;99.90;;;;;;1988325;71;21465;-80
2021/12/06 07:26:45;;;;;;;24.52;17.57;;;3.60;99.90;;;;;;1999395;71;21490;-78
2021/12/06 07:29:12;;;;;;;23.52;16.73;;;3.50;99.90;;;;;;2002549;71;21558;-77
2021/12/06 07:31:38;;;;;;;23.30;16.93;;;3.50;99.90;;;;;;1998988;71;21543;-78
2021/12/06 07:34:04;;;;;;;27.87;17.65;;;3.50;99.90;;;;;;1993335;71;21436;-77
2021/12/06 07:36:30;;;;;;;22.20;17.05;;;3.60;99.90;;;;;;1996637;71;21038;-79
2021/12/06 07:38:56;;;;;;;22.60;15.58;;;3.50;99.90;;;;;;1976764;71;21061;-78
2021/12/06 07:41:22;;;;;;;23.20;16.55;;;3.60;99.90;;;;;;1983232;71;21060;-77
2021/12/06 07:43:48;;;;;;;25.20;15.95;;;3.60;99.90;;;;;;1983645;71;21111;-78
2021/12/06 07:46:15;;;;;;;22.05;16.05;;;3.50;99.90;;;;;;1999631;71;21142;-77
2021/12/06 07:48:41;;;;;;;22.30;17.50;;;3.50;99.90;;;;;;1980350;71;21260;-77
2021/12/06 07:51:07;;;;;;;24.52;17.52;;;3.60;99.90;;;;;;1985688;71;21037;-77
2021/12/06 07:53:33;;;;;;;21.50;16.40;;;3.60;99.90;;;;;;2000751;71;21635;-77
2021/12/06 07:55:59;;;;;;;22.93;16.70;;;3.60;99.90;;;;;;1999876;71;21473;-76
2021/12/06 07:58:26;;;;;;;27.60;17.85;;;3.60;99.90;;;;;;1999195;71;21477;-82
2021/12/06 08:00:52;;;;;;;22.50;16.25;;;3.60;99.90;;;;;;2006687;71;21060;-79
2021/12/06 08:03:22;;;;;;;22.40;16.70;;;3.60;99.90;;;;;;1996321;71;21104;-78
2021/12/06 08:05:46;;;;;;;24.63;16.35;;;3.60;99.90;;;;;;1989889;71;21074;-79
2021/12/06 08:08:12;;;;;;;25.35;17.40;;;3.60;99.90;;;;;;2006544;71;21149;-81
2021/12/06 08:10:38;;;;;;;21.40;16.20;;;3.70;99.90;;;;;;1997136;71;21173;-80
2021/12/06 08:13:04;;;;;;;21.37;16.37;;;3.70;99.90;;;;;;2004161;71;21045;-81
2021/12/06 08:15:30;;;;;;;19.80;16.17;;;3.70;99.90;;;;;;2005893;71;21026;-79
2021/12/06 08:17:56;;;;;;;22.27;16.17;;;3.80;99.90;;;;;;2001579;71;21134;-79
2021/12/06 08:20:22;;;;;;;28.57;18.15;;;3.80;99.90;;;;;;2012559;71;21277;-79
2021/12/06 08:22:48;;;;;;;28.55;16.50;;;3.80;99.90;;;;;;2004920;71;21055;-79
2021/12/06 08:25:15;;;;;;;27.50;17.23;;;3.90;99.90;;;;;;1993960;71;21069;-80
2021/12/06 08:27:41;;;;;;;21.93;17.02;;;3.80;99.90;;;;;;1986841;71;21052;-81
2021/12/06 08:30:07;;;;;;;26.12;16.97;;;3.80;99.90;;;;;;2005636;71;21073;-80
2021/12/06 08:32:33;;;;;;;23.55;17.60;;;3.80;99.90;;;;;;2000518;71;21053;-79
2021/12/06 08:34:59;;;;;;;24.67;18.20;;;3.80;99.90;;;;;;2007008;71;21201;-79
2021/12/06 08:37:26;;;;;;;23.73;17.42;;;3.90;99.90;;;;;;1997423;71;21033;-78
2021/12/06 08:39:52;;;;;;;29.67;17.48;;;3.90;99.90;;;;;;1996097;71;21041;-79
2021/12/06 08:42:18;;;;;;;19.57;17.27;;;3.90;99.90;;;;;;2004915;71;21166;-79
2021/12/06 08:44:44;;;;;;;24.95;17.25;;;3.90;99.90;;;;;;2005430;71;21138;-79
2021/12/06 08:47:10;;;;;;;29.02;17.87;;;3.80;99.90;;;;;;1995762;71;21057;-79
2021/12/06 08:49:36;;;;;;;23.35;17.50;;;3.90;99.90;;;;;;1992196;71;21178;-79
2021/12/06 08:52:03;;;;;;;22.98;17.55;;;3.90;99.90;;;;;;2006311;71;21130;-79
2021/12/06 08:54:29;;;;;;;20.90;17.65;;;3.90;99.90;;;;;;2005054;71;21134;-80
2021/12/06 08:56:55;;;;;;;25.92;18.45;;;3.90;99.90;;;;;;1994210;71;21526;-77
2021/12/06 08:59:34;;;;;;;27.35;18.42;;;3.90;99.90;;;;;;2003649;71;21176;-80
2021/12/06 09:01:59;;;;;;;24.87;17.87;;;3.90;99.90;;;;;;1974146;71;21142;-78
2021/12/06 09:04:25;;;;;;;28.00;17.77;;;4.00;99.90;;;;;;1997098;71;21068;-79
2021/12/06 09:06:51;;;;;;;25.97;18.05;;;4.10;99.90;;;;;;2001436;71;21134;-80
2021/12/06 09:09:18;;;;;;;21.93;16.45;;;4.10;99.90;;;;;;2000095;71;21135;-77
2021/12/06 09:11:44;;;;;;;23.67;16.27;;;4.10;99.90;;;;;;2001334;71;21049;-78
2021/12/06 09:14:10;;;;;;;21.35;15.98;;;3.90;99.90;;;;;;1996013;71;21149;-79
2021/12/06 09:16:36;;;;;;;21.70;16.27;;;4.10;99.90;;;;;;1992497;71;21107;-79
2021/12/06 09:19:02;;;;;;;20.70;15.98;;;4.20;99.90;;;;;;1993040;71;21072;-80
2021/12/06 09:21:28;;;;;;;22.00;15.95;;;4.10;99.90;;;;;;2007029;71;21138;-79
2021/12/06 09:23:55;;;;;;;21.40;15.45;;;4.20;99.90;;;;;;1994376;71;21134;-78
2021/12/06 09:26:21;;;;;;;26.20;16.70;;;4.20;99.90;;;;;;2007728;71;21072;-79
2021/12/06 09:28:47;;;;;;;25.77;14.70;;;4.00;99.90;;;;;;1998953;71;21064;-80
2021/12/06 09:31:15;;;;;;;28.25;18.12;;;4.10;99.90;;;;;;1986874;71;21505;-79
2021/12/06 09:33:41;;;;;;;22.67;15.90;;;4.10;99.90;;;;;;1991415;71;21104;-78
2021/12/06 09:36:07;;;;;;;21.33;15.30;;;4.30;99.90;;;;;;1992419;71;21053;-75
2021/12/06 09:38:37;;;;;;;21.33;14.58;;;4.30;99.90;;;;;;2006576;71;21446;-79
2021/12/06 09:41:01;;;;;;;19.07;14.13;;;4.50;99.90;;;;;;1994530;70;21070;-79
2021/12/06 09:43:28;;;;;;;18.67;14.63;;;4.30;99.90;;;;;;1996133;71;21099;-79
2021/12/06 09:45:55;;;;;;;19.92;13.35;;;4.30;99.90;;;;;;2007328;71;21142;-79
2021/12/06 09:48:21;;;;;;;23.15;14.47;;;4.30;99.90;;;;;;2001223;71;21133;-77
2021/12/06 09:50:47;;;;;;;23.07;14.77;;;4.30;99.90;;;;;;1991070;71;21044;-77
2021/12/06 09:53:14;;;;;;;23.40;15.65;;;4.30;99.90;;;;;;2002050;71;21064;-77
2021/12/06 09:55:42;;;;;;;23.32;13.22;;;4.40;99.90;;;;;;1986975;71;21097;-75
2021/12/06 09:58:07;;;;;;;17.27;13.70;;;4.40;99.90;;;;;;1987550;71;21466;-77
2021/12/06 10:00:34;;;;;;;19.07;13.53;;;4.40;99.90;;;;;;1994856;71;21162;-77
2021/12/06 10:03:00;;;;;;;17.25;13.58;;;4.50;99.90;;;;;;1995344;71;21178;-80
2021/12/06 10:05:29;;;;;;;20.32;12.43;;;4.50;99.90;;;;;;2006445;71;21096;-80
2021/12/06 10:07:54;;;;;;;27.35;14.05;;;4.50;99.90;;;;;;1995705;70;21466;-77
2021/12/06 10:10:20;;;;;;;30.72;14.28;;;4.60;99.90;;;;;;1997771;71;21530;-81
2021/12/06 10:12:51;;;;;;;28.52;15.13;;;4.70;99.90;;;;;;1993129;71;21509;-77
2021/12/06 10:15:14;;;;;;;23.38;14.90;;;4.70;99.90;;;;;;2010130;69;21171;-77
2021/12/06 10:17:41;;;;;;;20.72;13.75;;;4.70;99.90;;;;;;1998279;71;21055;-82
2021/12/06 10:20:09;;;;;;;17.23;12.98;;;4.80;99.90;;;;;;1999269;71;21057;-81
2021/12/06 10:22:35;;;;;;;20.62;14.50;;;4.70;99.90;;;;;;1992806;71;21064;-81
2021/12/06 10:25:01;;;;;;;16.60;13.13;;;4.70;99.90;;;;;;2005359;71;21554;-84
2021/12/06 10:27:29;;;;;;;20.30;13.10;;;4.70;99.90;;;;;;2004900;71;21294;-83
2021/12/06 10:29:58;;;;;;;25.00;12.65;;;4.70;99.90;;;;;;2002597;71;21065;-81
2021/12/06 10:32:23;;;;;;;14.65;10.60;;;4.70;99.90;;;;;;2002128;69;21101;-83
2021/12/06 10:34:49;;;;;;;16.15;11.50;;;4.70;99.90;;;;;;1994218;71;21131;-81
2021/12/06 10:37:15;;;;;;;16.45;10.88;;;4.80;99.90;;;;;;1990822;71;21227;-82
2021/12/06 10:39:41;;;;;;;13.18;11.05;;;5.00;99.90;;;;;;1987175;71;21533;-86
2021/12/06 10:42:14;;;;;;;13.93;11.15;;;5.30;99.90;;;;;;1992720;71;21454;-81
2021/12/06 10:45:08;;;;;;;13.15;9.93;;;5.60;99.90;;;;;;1997535;71;21098;-80
2021/12/06 10:47:12;;;;;;;14.25;10.20;;;5.70;99.90;;;;;;1989764;71;21037;-81
2021/12/06 10:49:36;;;;;;;13.88;10.63;;;5.60;99.90;;;;;;1997543;69;21236;-82
2021/12/06 10:52:28;;;;;;;15.15;10.65;;;5.50;99.90;;;;;;1996167;71;21061;-81
2021/12/06 10:54:52;;;;;;;15.28;10.40;;;5.40;99.90;;;;;;1992387;71;21074;-81
2021/12/06 10:57:18;;;;;;;;;;;5.50;99.90;;;;;;1997200;71;21112;-83
2021/12/06 10:59:44;;;;;;;12.55;8.70;;;5.50;99.90;;;;;;1994921;71;20135;-82
2021/12/06 11:02:11;;;;;;;12.00;9.08;;;5.40;99.90;;;;;;1995128;71;21093;-81
2021/12/06 11:04:37;;;;;;;8.88;7.83;;;5.30;99.90;;;;;;1998509;71;21148;-80
2021/12/06 11:07:08;;;;;;;13.43;8.95;;;5.20;99.90;;;;;;1992329;71;21179;-80
2021/12/06 11:09:31;;;;;;;12.82;8.83;;;5.00;99.90;;;;;;1995291;71;21094;-80
2021/12/06 11:11:58;;;;;;;11.95;9.60;;;5.00;99.90;;;;;;1972268;71;21084;-80
2021/12/06 11:14:24;;;;;;;10.58;8.50;;;5.10;99.90;;;;;;1999050;71;21126;-81
2021/12/06 11:16:52;;;;;;;16.12;8.25;;;5.20;99.90;;;;;;1994216;71;21150;-82
2021/12/06 11:19:25;;;;;;;11.40;8.80;;;5.10;99.90;;;;;;1994176;71;21464;-82
2021/12/06 11:24:29;;;;;;;12.65;9.63;;;5.20;99.90;;;;;;1916357;71;21449;-80
2021/12/06 11:26:55;;;;;;;16.12;10.13;;;5.00;99.90;;;;;;1997077;71;21064;-81
2021/12/06 11:29:23;;;;;;;11.95;8.40;;;5.00;99.90;;;;;;1998719;71;21026;-80
2021/12/06 11:34:20;;;;;;;15.83;9.85;;;5.00;99.90;;;;;;1958423;71;21033;-81
2021/12/06 11:36:46;;;;;;;11.93;8.30;;;5.10;99.90;;;;;;2003451;71;21064;-81
2021/12/06 11:39:12;;;;;;;8.08;7.28;;;5.30;99.90;;;;;;1996771;71;21486;-80
2021/12/06 11:41:42;;;;;;;8.75;6.92;;;5.50;99.90;;;;;;1999346;71;21696;-80
2021/12/06 11:44:06;;;;;;;15.23;8.95;;;5.70;99.90;;;;;;1998462;71;21167;-80
2021/12/06 11:46:32;;;;;;;14.68;8.23;;;5.60;99.90;;;;;;1996021;71;21146;-82
2021/12/06 11:48:58;;;;;;;14.78;9.00;;;5.70;99.90;;;;;;1993521;71;21022;-80
2021/12/06 11:51:24;;;;;;;11.15;8.10;;;5.70;99.90;;;;;;1995870;71;21235;-79
2021/12/06 11:53:51;;;;;;;12.63;8.60;;;5.70;99.90;;;;;;1985060;71;21068;-78
2021/12/06 11:56:18;;;;;;;12.95;8.53;;;5.60;99.90;;;;;;1993331;71;21253;-79
2021/12/06 11:58:44;;;;;;;13.90;8.53;;;5.60;99.90;;;;;;2003117;71;21150;-77
2021/12/06 12:01:10;;;;;;;9.38;7.83;;;5.50;99.90;;;;;;2002216;71;21060;-78
2021/12/06 12:03:36;;;;;;;11.45;8.43;;;5.70;99.90;;;;;;1999461;71;21467;-78
2021/12/06 12:06:02;;;;;;;9.98;7.58;;;5.80;99.90;;;;;;2002944;71;21658;-82
2021/12/06 12:08:28;;;;;;;7.47;6.75;;;5.90;99.90;;;;;;2002305;71;21528;-80
2021/12/06 12:10:54;;;;;;;8.53;6.80;;;6.00;99.90;;;;;;2004690;71;21531;-82
2021/12/06 12:13:21;;;;;;;14.23;7.87;;;6.10;99.90;;;;;;1991143;71;21182;-78
2021/12/06 12:15:47;;;;;;;8.88;7.60;;;6.90;99.90;;;;;;2002632;71;21477;-77
2021/12/06 12:18:13;;;;;;;13.55;8.35;;;7.80;99.90;;;;;;2006879;71;21704;-79
2021/12/06 12:20:40;;;;;;;12.07;7.45;;;8.10;99.90;;;;;;2000687;71;21535;-80
2021/12/06 12:23:09;;;;;;;9.88;6.80;;;7.80;99.90;;;;;;2002330;71;21173;-78
2021/12/06 12:25:37;;;;;;;16.37;7.20;;;7.30;99.90;;;;;;2003791;71;21189;-80
2021/12/06 12:28:18;;;;;;;12.00;7.25;;;7.60;99.90;;;;;;1991751;71;21171;-80
2021/12/06 12:30:44;;;;;;;12.58;6.62;;;8.30;99.90;;;;;;1989971;71;21184;-79
2021/12/06 12:33:12;;;;;;;15.95;6.53;;;8.30;99.90;;;;;;1990411;71;21215;-79
2021/12/06 12:35:40;;;;;;;12.05;5.42;;;7.30;99.90;;;;;;1972166;71;21077;-78
2021/12/06 12:38:06;;;;;;;9.65;5.90;;;7.00;99.90;;;;;;1970477;72;21091;-75
2021/12/06 12:40:32;;;;;;;15.13;7.75;;;6.70;99.90;;;;;;1960801;72;21146;-75
2021/12/06 12:42:58;;;;;;;7.90;5.90;;;6.40;99.90;;;;;;1953314;72;21070;-80
2021/12/06 12:45:24;;;;;;;7.58;6.78;;;6.40;99.90;;;;;;1963983;72;21069;-81
2021/12/06 12:47:51;;;;;;;13.70;6.85;;;6.40;99.90;;;;;;1971130;72;21151;-80
2021/12/06 12:50:17;;;;;;;11.40;6.62;;;6.50;99.90;;;;;;1966003;72;21091;-80
2021/12/06 12:52:45;;;;;;;10.60;6.85;;;6.20;99.90;;;;;;1958459;72;21045;-77
2021/12/06 12:55:15;;;;;;;12.73;6.03;;;6.10;99.90;;;;;;1965155;71;21096;-78
2021/12/06 12:57:42;;;;;;;14.58;6.17;;;6.10;99.90;;;;;;1959545;72;21475;-77
2021/12/06 13:00:09;;;;;;;7.83;5.78;;;6.00;99.90;;;;;;1960606;72;21234;-79